createdAt,value
2018-02-11T00:01:40.192Z,6.77
2018-02-11T00:04:08.277Z,7.63
2018-02-11T00:06:35.818Z,7.33
2018-02-11T00:09:03.808Z,7.83
2018-02-11T00:11:32.208Z,5.90
2018-02-11T00:14:00.413Z,7.23
2018-02-11T00:16:27.952Z,6.13
2018-02-11T00:18:55.519Z,5.97
2018-02-11T00:21:23.100Z,6.43
2018-02-11T00:23:50.622Z,6.33
2018-02-11T00:26:18.308Z,5.13
2018-02-11T00:28:45.902Z,7.03
2018-02-11T00:31:13.479Z,4.93
2018-02-11T00:33:41.292Z,4.87
2018-02-11T00:36:08.827Z,5.60
2018-02-11T00:38:36.408Z,5.17
2018-02-11T00:41:04.462Z,4.90
2018-02-11T00:43:33.526Z,7.50
2018-02-11T00:46:01.517Z,4.97
2018-02-11T00:48:29.078Z,4.97
2018-02-11T00:50:56.872Z,5.47
2018-02-11T00:53:24.398Z,5.03
2018-02-11T00:55:51.971Z,4.17
2018-02-11T00:58:19.503Z,4.50
2018-02-11T01:00:47.074Z,5.33
2018-02-11T01:03:14.639Z,3.80
2018-02-11T01:05:42.219Z,4.87
2018-02-11T01:08:09.755Z,4.83
2018-02-11T01:10:37.322Z,4.77
2018-02-11T01:13:04.846Z,6.47
2018-02-11T01:15:32.402Z,5.07
2018-02-11T01:17:59.921Z,6.23
2018-02-11T01:20:27.515Z,4.47
2018-02-11T01:22:55.039Z,5.63
2018-02-11T01:25:22.571Z,4.47
2018-02-11T01:27:50.332Z,4.77
2018-02-11T01:30:17.862Z,5.40
2018-02-11T01:32:45.442Z,4.97
2018-02-11T01:35:12.973Z,4.50
2018-02-11T01:37:40.507Z,3.60
2018-02-11T01:40:08.087Z,3.47
2018-02-11T01:42:36.075Z,3.67
2018-02-11T01:45:03.610Z,4.03
2018-02-11T01:47:31.152Z,3.73
2018-02-11T01:50:10.334Z,4.20
2018-02-11T01:52:37.858Z,3.30
2018-02-11T01:55:05.431Z,3.10
2018-02-11T01:57:33.218Z,3.40
2018-02-11T02:00:00.801Z,3.60
2018-02-11T02:02:28.819Z,2.97
2018-02-11T02:04:56.346Z,3.90
2018-02-11T02:07:23.878Z,3.90
2018-02-11T02:09:51.437Z,4.00
2018-02-11T02:12:19.410Z,4.23
2018-02-11T02:14:47.274Z,3.30
2018-02-11T02:17:14.801Z,3.03
2018-02-11T02:19:42.335Z,3.50
2018-02-11T02:22:09.907Z,4.37
2018-02-11T02:24:37.473Z,3.83
2018-02-11T02:27:05.069Z,3.07
2018-02-11T02:29:32.602Z,4.20
2018-02-11T02:32:00.142Z,4.00
2018-02-11T02:34:27.716Z,3.90
2018-02-11T02:36:55.242Z,3.90
2018-02-11T02:39:23.422Z,4.03
2018-02-11T02:41:50.999Z,4.07
2018-02-11T02:44:19.013Z,3.87
2018-02-11T02:46:46.545Z,3.47
2018-02-11T02:49:14.109Z,4.20
2018-02-11T02:51:41.646Z,3.80
2018-02-11T02:54:09.388Z,3.50
2018-02-11T02:56:36.929Z,3.40
2018-02-11T02:59:04.481Z,3.87
2018-02-11T03:01:32.052Z,3.60
2018-02-11T03:03:59.587Z,4.13
2018-02-11T03:06:27.285Z,3.93
2018-02-11T03:08:54.809Z,3.40
2018-02-11T03:11:22.369Z,5.50
2018-02-11T03:13:49.896Z,7.77
2018-02-11T03:16:17.470Z,5.70
2018-02-11T03:18:44.998Z,5.07
2018-02-11T03:21:12.697Z,4.97
2018-02-11T03:23:40.218Z,5.30
2018-02-11T03:26:07.773Z,5.40
2018-02-11T03:28:35.893Z,5.53
2018-02-11T03:31:03.883Z,9.57
2018-02-11T03:33:31.418Z,12.77
2018-02-11T03:35:58.995Z,11.00
2018-02-11T03:38:26.563Z,11.23
2018-02-11T03:40:54.155Z,15.43
2018-02-11T03:43:21.722Z,10.10
2018-02-11T03:45:49.425Z,10.97
2018-02-11T03:48:16.968Z,11.90
2018-02-11T03:50:44.490Z,10.20
2018-02-11T03:53:12.664Z,13.27
2018-02-11T03:55:40.189Z,12.97
2018-02-11T03:58:07.722Z,11.00
2018-02-11T04:00:35.303Z,10.57
2018-02-11T04:03:02.848Z,11.27
2018-02-11T04:05:30.418Z,11.03
2018-02-11T04:07:58.012Z,10.37
2018-02-11T04:10:25.541Z,16.27
2018-02-11T04:12:53.135Z,10.70
2018-02-11T04:15:20.658Z,11.23
2018-02-11T04:17:48.810Z,13.20
2018-02-11T04:20:16.850Z,12.37
2018-02-11T04:22:44.393Z,13.47
2018-02-11T04:25:11.962Z,12.80
2018-02-11T04:27:39.507Z,12.40
2018-02-11T04:30:06.370Z,11.93
2018-02-11T04:32:34.194Z,10.57
2018-02-11T04:35:01.888Z,10.30
2018-02-11T04:37:29.409Z,9.57
2018-02-11T04:39:56.937Z,12.37
2018-02-11T04:42:24.549Z,10.03
2018-02-11T04:44:52.074Z,8.43
2018-02-11T04:47:19.981Z,7.80
2018-02-11T04:49:47.653Z,9.00
2018-02-11T04:52:15.213Z,8.07
2018-02-11T04:54:42.777Z,9.30
2018-02-11T04:57:10.317Z,9.27
2018-02-11T04:59:37.847Z,7.20
2018-02-11T05:02:05.409Z,6.70
2018-02-11T05:04:32.947Z,6.03
2018-02-11T05:07:00.523Z,12.10
2018-02-11T05:09:28.072Z,25.33
2018-02-11T05:11:55.654Z,96.17
2018-02-11T05:14:23.195Z,59.83
2018-02-11T05:16:51.291Z,35.93
2018-02-11T05:19:18.821Z,29.83
2018-02-11T05:21:46.382Z,19.90
2018-02-11T05:24:13.923Z,17.17
2018-02-11T05:26:41.929Z,14.33
2018-02-11T05:29:09.742Z,18.40
2018-02-11T05:31:37.318Z,17.07
2018-02-11T05:34:04.849Z,19.93
2018-02-11T05:36:32.615Z,14.80
2018-02-11T05:39:01.151Z,12.87
2018-02-11T05:41:28.944Z,14.97
2018-02-11T05:43:56.760Z,15.20
2018-02-11T05:46:24.285Z,14.07
2018-02-11T05:48:51.814Z,16.70
2018-02-11T05:51:19.382Z,12.70
2018-02-11T05:53:46.949Z,13.67
2018-02-11T05:56:14.536Z,11.97
2018-02-11T05:58:42.111Z,15.57
2018-02-11T06:01:09.635Z,10.70
2018-02-11T06:03:38.194Z,14.60
2018-02-11T06:06:05.770Z,21.57
2018-02-11T06:08:33.297Z,13.63
2018-02-11T06:11:01.321Z,14.37
2018-02-11T06:13:28.857Z,15.73
2018-02-11T06:15:56.447Z,17.83
2018-02-11T06:18:23.989Z,15.00
2018-02-11T06:20:52.014Z,12.60
2018-02-11T06:23:20.358Z,14.03
2018-02-11T06:25:47.885Z,17.73
2018-02-11T06:28:15.860Z,14.57
2018-02-11T06:30:43.395Z,18.20
2018-02-11T06:33:10.937Z,23.50
2018-02-11T06:35:38.509Z,26.93
2018-02-11T06:38:06.979Z,26.70
2018-02-11T06:40:34.549Z,23.70
2018-02-11T06:43:02.126Z,19.33
2018-02-11T06:45:29.729Z,17.50
2018-02-11T06:47:57.289Z,20.93
2018-02-11T06:50:24.826Z,22.57
2018-02-11T06:52:52.398Z,20.20
2018-02-11T06:55:20.777Z,19.00
2018-02-11T06:57:48.626Z,22.30
2018-02-11T07:00:16.199Z,19.23
2018-02-11T07:02:43.886Z,24.00
2018-02-11T07:05:11.462Z,22.00
2018-02-11T07:07:40.505Z,20.53
2018-02-11T07:10:08.113Z,20.30
2018-02-11T07:12:36.228Z,22.87
2018-02-11T07:15:04.284Z,29.27
2018-02-11T07:17:31.942Z,26.87
2018-02-11T07:19:59.479Z,27.63
2018-02-11T07:22:27.014Z,24.63
2018-02-11T07:24:54.613Z,26.90
2018-02-11T07:27:22.371Z,25.90
2018-02-11T07:29:49.955Z,29.20
2018-02-11T07:32:17.481Z,28.87
2018-02-11T07:34:45.425Z,24.63
2018-02-11T07:37:13.540Z,26.13
2018-02-11T07:39:41.242Z,24.50
2018-02-11T07:42:08.906Z,23.77
2018-02-11T07:44:36.736Z,35.13
2018-02-11T07:47:04.310Z,42.47
2018-02-11T07:49:31.883Z,36.07
2018-02-11T07:51:59.454Z,46.40
2018-02-11T07:54:27.035Z,42.07
2018-02-11T07:56:54.574Z,37.33
2018-02-11T07:59:23.263Z,38.57
2018-02-11T08:01:50.794Z,34.57
2018-02-11T08:04:18.374Z,43.93
2018-02-11T08:06:45.950Z,42.27
2018-02-11T08:09:13.498Z,33.77
2018-02-11T08:11:41.482Z,43.20
2018-02-11T08:14:09.023Z,42.60
2018-02-11T08:16:37.493Z,55.83
2018-02-11T08:19:05.066Z,35.80
2018-02-11T08:21:32.609Z,43.73
2018-02-11T08:24:01.462Z,45.70
2018-02-11T08:26:29.558Z,40.23
2018-02-11T08:28:57.497Z,45.30
2018-02-11T08:31:25.039Z,41.87
2018-02-11T08:33:52.922Z,40.23
2018-02-11T08:36:20.661Z,39.73
2018-02-11T08:38:48.203Z,40.47
2018-02-11T08:41:16.041Z,51.00
2018-02-11T08:43:43.932Z,39.30
2018-02-11T08:46:11.469Z,32.97
2018-02-11T08:48:39.002Z,36.67
2018-02-11T08:51:06.595Z,37.13
2018-02-11T08:53:34.465Z,33.13
2018-02-11T08:56:02.330Z,42.60
2018-02-11T08:58:29.911Z,41.80
2018-02-11T09:00:57.437Z,36.67
2018-02-11T09:03:25.944Z,35.77
2018-02-11T09:05:53.610Z,34.80
2018-02-11T09:08:21.849Z,38.93
2018-02-11T09:10:50.107Z,39.87
2018-02-11T09:13:18.088Z,31.57
2018-02-11T09:15:45.882Z,30.17
2018-02-11T09:18:13.743Z,32.07
2018-02-11T09:20:42.245Z,38.33
2018-02-11T09:23:10.239Z,39.30
2018-02-11T09:25:38.103Z,31.00
2018-02-11T09:28:05.893Z,33.83
2018-02-11T09:30:34.595Z,35.33
2018-02-11T09:33:02.594Z,27.40
2018-02-11T09:35:30.165Z,42.33
2018-02-11T09:37:58.058Z,38.60
2018-02-11T09:40:26.275Z,34.47
2018-02-11T09:42:53.805Z,29.93
2018-02-11T09:45:21.379Z,30.07
2018-02-11T09:47:48.921Z,24.63
2018-02-11T09:50:17.016Z,26.70
2018-02-11T09:52:44.586Z,20.53
2018-02-11T09:55:12.171Z,22.10
2018-02-11T09:57:40.416Z,20.20
2018-02-11T10:00:08.004Z,27.37
2018-02-11T10:02:35.573Z,22.97
2018-02-11T10:05:03.220Z,24.37
2018-02-11T10:07:30.786Z,22.97
2018-02-11T10:09:58.370Z,18.83
2018-02-11T10:12:26.051Z,21.90
2018-02-11T10:14:53.664Z,20.00
2018-02-11T10:17:21.205Z,23.03
2018-02-11T10:19:48.818Z,20.77
2018-02-11T10:22:16.418Z,17.37
2018-02-11T10:24:44.003Z,20.13
2018-02-11T10:27:11.558Z,21.73
2018-02-11T10:29:39.770Z,21.87
2018-02-11T10:32:07.304Z,16.93
2018-02-11T10:34:34.917Z,27.07
2018-02-11T10:37:02.500Z,21.83
2018-02-11T10:39:30.039Z,23.33
2018-02-11T10:41:57.626Z,20.53
2018-02-11T10:44:25.544Z,23.80
2018-02-11T10:46:53.119Z,21.50
2018-02-11T10:49:21.109Z,26.27
2018-02-11T10:51:48.699Z,15.63
2018-02-11T10:54:16.328Z,18.60
2018-02-11T10:56:44.312Z,16.17
2018-02-11T10:59:12.022Z,21.87
2018-02-11T11:01:39.558Z,22.20
2018-02-11T11:04:07.185Z,17.97
2018-02-11T11:06:35.540Z,19.77
2018-02-11T11:09:03.105Z,23.50
2018-02-11T11:11:30.858Z,24.00
2018-02-11T11:13:58.450Z,20.47
2018-02-11T11:16:26.206Z,20.97
2018-02-11T11:18:54.688Z,17.40
2018-02-11T11:21:22.267Z,19.37
2018-02-11T11:23:49.852Z,29.73
2018-02-11T11:26:18.172Z,27.73
2018-02-11T11:28:46.039Z,22.00
2018-02-11T11:31:13.800Z,20.93
2018-02-11T11:33:41.387Z,24.13
2018-02-11T11:36:09.588Z,22.57
2018-02-11T11:38:38.294Z,23.70
2018-02-11T11:41:05.831Z,20.47
2018-02-11T11:43:37.290Z,21.03
2018-02-11T11:46:05.052Z,25.90
2018-02-11T11:48:32.631Z,28.57
2018-02-11T11:51:00.226Z,26.03
2018-02-11T11:53:30.838Z,27.87
2018-02-11T11:55:58.586Z,27.30
2018-02-11T11:58:26.316Z,35.23
2018-02-11T12:00:54.821Z,34.10
2018-02-11T12:03:23.873Z,35.17
2018-02-11T12:05:51.457Z,32.33
2018-02-11T12:08:18.995Z,31.33
2018-02-11T12:10:46.573Z,28.90
2018-02-11T12:13:14.987Z,21.50
2018-02-11T12:15:42.715Z,27.50
2018-02-11T12:18:10.318Z,23.93
2018-02-11T12:20:38.822Z,22.93
2018-02-11T12:23:06.640Z,29.97
2018-02-11T12:25:34.461Z,26.73
2018-02-11T12:28:01.999Z,24.70
2018-02-11T12:30:29.591Z,26.23
2018-02-11T12:32:57.834Z,26.67
2018-02-11T12:35:26.152Z,26.00
2018-02-11T12:37:54.371Z,23.47
2018-02-11T12:40:21.938Z,22.37
2018-02-11T12:42:49.527Z,28.13
2018-02-11T12:45:17.486Z,22.53
2018-02-11T12:47:45.192Z,18.17
2018-02-11T12:50:12.774Z,22.37
2018-02-11T12:52:41.194Z,20.37
2018-02-11T12:55:09.211Z,21.47
2018-02-11T12:57:36.750Z,17.97
2018-02-11T13:00:04.291Z,16.87
2018-02-11T13:02:33.104Z,19.47
2018-02-11T13:05:02.424Z,18.50
2018-02-11T13:07:30.076Z,22.37
2018-02-11T13:09:58.506Z,17.20
2018-02-11T13:12:26.578Z,17.17
2018-02-11T13:14:54.383Z,24.73
2018-02-11T13:17:21.930Z,20.70
2018-02-11T13:19:51.040Z,19.97
2018-02-11T13:22:18.809Z,13.27
2018-02-11T13:24:46.568Z,18.03
2018-02-11T13:27:14.649Z,18.63
2018-02-11T13:29:42.231Z,16.63
2018-02-11T13:32:09.880Z,20.57
2018-02-11T13:34:38.411Z,13.10
2018-02-11T13:37:07.556Z,15.27
2018-02-11T13:39:35.142Z,18.07
2018-02-11T13:42:02.692Z,16.60
2018-02-11T13:44:30.278Z,16.97
2018-02-11T13:46:57.887Z,17.50
2018-02-11T13:49:25.420Z,9.23
2018-02-11T13:51:53.036Z,9.97
2018-02-11T13:54:20.661Z,12.67
2018-02-11T13:56:48.207Z,11.90
2018-02-11T13:59:16.702Z,12.37
2018-02-11T14:01:44.409Z,11.10
2018-02-11T14:04:12.798Z,9.93
2018-02-11T14:06:43.180Z,10.77
2018-02-11T14:09:10.748Z,13.00
2018-02-11T14:11:38.325Z,13.30
2018-02-11T14:14:05.930Z,22.53
2018-02-11T14:16:33.471Z,17.30
2018-02-11T14:19:01.675Z,13.47
2018-02-11T14:21:29.219Z,16.67
2018-02-11T14:23:57.820Z,24.10
2018-02-11T14:26:26.513Z,21.17
2018-02-11T14:28:54.114Z,14.03
2018-02-11T14:31:22.410Z,24.50
2018-02-11T14:33:50.760Z,54.60
2018-02-11T14:36:18.391Z,28.07
2018-02-11T14:38:47.708Z,31.87
2018-02-11T14:41:15.560Z,36.87
2018-02-11T14:43:44.890Z,18.43
2018-02-11T14:46:12.465Z,64.00
2018-02-11T14:48:41.386Z,16.40
2018-02-11T14:51:09.799Z,11.63
2018-02-11T14:53:38.072Z,14.43
2018-02-11T14:56:05.606Z,11.40
2018-02-11T14:58:33.181Z,10.43
2018-02-11T15:01:00.729Z,10.83
2018-02-11T15:03:28.308Z,10.10
2018-02-11T15:05:55.903Z,11.53
2018-02-11T15:08:24.288Z,11.90
2018-02-11T15:10:52.258Z,9.40
2018-02-11T15:13:19.843Z,11.03
2018-02-11T15:15:47.379Z,11.57
2018-02-11T15:18:16.100Z,16.90
2018-02-11T15:20:43.706Z,19.43
2018-02-11T15:23:11.851Z,28.50
2018-02-11T15:25:39.794Z,24.33
2018-02-11T15:28:07.901Z,35.03
2018-02-11T15:30:35.993Z,46.43
2018-02-11T15:33:03.570Z,51.97
2018-02-11T15:35:31.367Z,48.93
2018-02-11T15:38:00.163Z,67.53
2018-02-11T15:40:27.707Z,41.67
2018-02-11T15:42:56.739Z,49.67
2018-02-11T15:45:24.327Z,42.90
2018-02-11T15:47:53.632Z,45.43
2018-02-11T15:50:23.010Z,38.63
2018-02-11T15:52:50.593Z,36.17
2018-02-11T15:55:20.955Z,44.33
2018-02-11T15:57:48.538Z,52.53
2018-02-11T16:00:17.586Z,72.40
2018-02-11T16:02:46.665Z,88.13
2018-02-11T16:05:14.234Z,64.80
2018-02-11T16:07:42.188Z,46.47
2018-02-11T16:10:11.977Z,54.50
2018-02-11T16:12:39.564Z,78.67
2018-02-11T16:15:09.633Z,67.67
2018-02-11T16:17:37.203Z,62.03
2018-02-11T16:20:05.168Z,57.87
2018-02-11T16:22:33.430Z,62.53
2018-02-11T16:25:01.925Z,68.73
2018-02-11T16:27:30.000Z,72.87
2018-02-11T16:29:57.944Z,66.40
2018-02-11T16:32:26.624Z,59.37
2018-02-11T16:34:54.237Z,46.43
2018-02-11T16:37:22.185Z,64.67
2018-02-11T16:39:51.576Z,59.17
2018-02-11T16:42:20.533Z,65.57
2018-02-11T16:44:49.810Z,74.90
2018-02-11T16:47:17.404Z,75.23
2018-02-11T16:49:44.946Z,48.87
2018-02-11T16:52:12.514Z,85.03
2018-02-11T16:54:40.097Z,65.93
2018-02-11T16:57:07.678Z,64.07
2018-02-11T16:59:35.252Z,63.07
2018-02-11T17:02:02.837Z,87.17
2018-02-11T17:04:30.793Z,81.27
2018-02-11T17:06:58.378Z,75.73
2018-02-11T17:09:26.779Z,60.80
2018-02-11T17:11:54.501Z,87.70
2018-02-11T17:14:22.039Z,107.50
2018-02-11T17:16:50.207Z,100.53
2018-02-11T17:19:18.285Z,112.33
2018-02-11T17:21:46.311Z,67.70
2018-02-11T17:24:15.515Z,60.97
2018-02-11T17:26:43.614Z,57.17
2018-02-11T17:29:11.654Z,53.17
2018-02-11T17:31:39.621Z,52.67
2018-02-11T17:34:10.019Z,51.63
2018-02-11T17:36:38.648Z,42.47
2018-02-11T17:39:06.196Z,39.50
2018-02-11T17:41:35.998Z,41.27
2018-02-11T17:44:03.920Z,37.63
2018-02-11T17:46:31.460Z,36.23
2018-02-11T17:49:00.048Z,36.37
2018-02-11T17:51:27.647Z,32.87
2018-02-11T17:53:57.509Z,26.47
2018-02-11T17:56:25.098Z,26.83
2018-02-11T17:58:53.428Z,27.33
2018-02-11T18:01:21.012Z,22.53
2018-02-11T18:03:49.799Z,23.63
2018-02-11T18:06:17.375Z,24.73
2018-02-11T18:08:45.874Z,25.87
2018-02-11T18:11:14.283Z,22.90
2018-02-11T18:13:42.672Z,22.30
2018-02-11T18:16:10.236Z,22.67
2018-02-11T18:18:39.374Z,24.10
2018-02-11T18:21:08.527Z,21.13
2018-02-11T18:23:36.997Z,16.77
2018-02-11T18:26:04.808Z,17.60
2018-02-11T18:28:32.584Z,20.80
2018-02-11T18:31:00.136Z,21.43
2018-02-11T18:33:28.095Z,15.73
2018-02-11T18:35:55.844Z,13.67
2018-02-11T18:38:24.176Z,18.17
2018-02-11T18:40:52.323Z,19.07
2018-02-11T18:43:19.912Z,16.23
2018-02-11T18:45:48.844Z,18.07
2018-02-11T18:48:16.839Z,16.80
2018-02-11T18:50:45.117Z,16.77
2018-02-11T18:53:13.093Z,16.07
2018-02-11T18:55:41.110Z,11.67
2018-02-11T18:58:09.429Z,14.10
2018-02-11T19:00:38.082Z,15.60
2018-02-11T19:03:06.542Z,16.23
2018-02-11T19:05:34.287Z,14.23
2018-02-11T19:08:01.887Z,17.63
2018-02-11T19:10:29.474Z,14.03
2018-02-11T19:12:57.020Z,16.57
2018-02-11T19:15:24.617Z,15.73
2018-02-11T19:17:53.681Z,15.30
2018-02-11T19:20:21.551Z,18.63
2018-02-11T19:22:49.086Z,19.67
2018-02-11T19:25:18.113Z,17.27
2018-02-11T19:27:45.646Z,18.87
2018-02-11T19:30:14.014Z,22.23
2018-02-11T19:32:42.514Z,27.13
2018-02-11T19:35:10.102Z,25.40
2018-02-11T19:37:38.434Z,23.73
2018-02-11T19:40:06.924Z,22.17
2018-02-11T19:42:35.075Z,28.03
2018-02-11T19:45:04.333Z,28.17
2018-02-11T19:47:32.710Z,29.77
2018-02-11T19:50:00.257Z,24.20
2018-02-11T19:52:29.772Z,27.70
2018-02-11T19:54:57.651Z,23.63
2018-02-11T19:57:25.460Z,28.97
2018-02-11T19:59:53.059Z,30.47
2018-02-11T20:02:20.600Z,43.30
2018-02-11T20:04:48.963Z,34.47
2018-02-11T20:07:16.549Z,40.67
2018-02-11T20:09:45.919Z,45.60
2018-02-11T20:12:14.436Z,56.30
2018-02-11T20:14:42.855Z,39.60
2018-02-11T20:17:12.989Z,37.37
2018-02-11T20:19:40.594Z,35.50
2018-02-11T20:22:08.355Z,34.23
2018-02-11T20:24:36.296Z,33.00
2018-02-11T20:27:04.453Z,29.73
2018-02-11T20:29:32.040Z,30.43
2018-02-11T20:32:00.502Z,35.30
2018-02-11T20:34:28.216Z,29.30
2018-02-11T20:36:55.841Z,36.90
2018-02-11T20:39:24.292Z,42.10
2018-02-11T20:41:52.799Z,32.07
2018-02-11T20:44:20.550Z,29.83
2018-02-11T20:46:48.326Z,31.07
2018-02-11T20:49:16.225Z,32.60
2018-02-11T20:51:43.816Z,29.83
2018-02-11T20:54:11.482Z,24.73
2018-02-11T20:56:39.089Z,30.43
2018-02-11T20:59:07.456Z,36.30
2018-02-11T21:01:35.791Z,35.60
2018-02-11T21:04:04.138Z,56.03
2018-02-11T21:06:33.231Z,34.50
2018-02-11T21:09:00.838Z,43.60
2018-02-11T21:11:29.134Z,32.07
2018-02-11T21:13:58.271Z,29.57
2018-02-11T21:16:26.358Z,38.17
2018-02-11T21:18:54.798Z,43.10
2018-02-11T21:21:23.431Z,50.23
2018-02-11T21:23:51.265Z,46.13
2018-02-11T21:26:18.856Z,34.77
2018-02-11T21:28:47.014Z,38.27
2018-02-11T21:31:14.583Z,36.50
2018-02-11T21:33:42.182Z,37.83
2018-02-11T21:36:10.034Z,44.73
2018-02-11T21:38:37.566Z,40.40
2018-02-11T21:41:05.159Z,35.87
2018-02-11T21:43:33.301Z,36.00
2018-02-11T21:46:15.738Z,34.33
2018-02-11T21:48:58.976Z,40.47
2018-02-11T21:51:41.577Z,34.93
2018-02-11T21:54:24.300Z,37.97
2018-02-11T21:57:06.847Z,31.10
2018-02-11T21:59:50.205Z,28.83
2018-02-11T22:02:33.934Z,29.77
2018-02-11T22:05:16.962Z,28.27
2018-02-11T22:07:59.642Z,28.17
2018-02-11T22:10:42.881Z,43.67
2018-02-11T22:13:27.420Z,32.03
2018-02-11T22:16:11.694Z,27.07
2018-02-11T22:18:54.921Z,30.43
2018-02-11T22:21:37.465Z,30.57
2018-02-11T22:24:20.528Z,34.27
2018-02-11T22:26:48.073Z,31.97
2018-02-11T22:29:31.322Z,34.50
2018-02-11T22:32:14.069Z,29.33
2018-02-11T22:34:57.212Z,27.47
2018-02-11T22:37:39.503Z,41.13
2018-02-11T22:40:22.315Z,40.40
2018-02-11T22:43:04.951Z,43.40
2018-02-11T22:45:47.874Z,51.30
2018-02-11T22:48:30.665Z,39.27
2018-02-11T22:50:58.239Z,26.30
2018-02-11T22:53:25.823Z,34.40
2018-02-11T22:55:53.349Z,27.27
2018-02-11T22:58:21.183Z,27.17
2018-02-11T23:00:48.726Z,24.63
2018-02-11T23:03:16.310Z,22.63
2018-02-11T23:05:43.860Z,22.50
2018-02-11T23:08:11.993Z,23.17
2018-02-11T23:10:40.369Z,24.17
2018-02-11T23:13:07.913Z,18.87
2018-02-11T23:15:35.441Z,17.63
2018-02-11T23:18:03.641Z,16.77
2018-02-11T23:20:31.180Z,17.77
2018-02-11T23:22:58.709Z,18.53
2018-02-11T23:25:26.282Z,19.03
2018-02-11T23:27:54.079Z,15.30
2018-02-11T23:30:21.624Z,18.27
2018-02-11T23:32:49.197Z,17.33
2018-02-11T23:35:16.808Z,18.50
2018-02-11T23:37:44.389Z,15.13
2018-02-11T23:40:11.922Z,16.30
2018-02-11T23:42:39.502Z,14.80
2018-02-11T23:45:07.055Z,16.23
2018-02-11T23:47:34.655Z,15.10
2018-02-11T23:50:02.181Z,15.50
2018-02-11T23:52:29.970Z,14.93
2018-02-11T23:54:57.570Z,20.03
2018-02-11T23:57:25.108Z,23.07
2018-02-11T23:59:52.633Z,26.50
